sensor_id;sensor_type;location;lat;lon;timestamp;pressure;altitude;pressure_sealevel;temperature
15709;BMP180;7954;51.914;8.420;2022-08-25T00:01:51;100524.44;;;31.60
15709;BMP180;7954;51.914;8.420;2022-08-25T00:04:21;100526.91;;;31.58
15709;BMP180;7954;51.914;8.420;2022-08-25T00:06:52;100524.84;;;31.54
15709;BMP180;7954;51.914;8.420;2022-08-25T00:09:30;100529.13;;;31.54
15709;BMP180;7954;51.914;8.420;2022-08-25T00:11:58;100521.81;;;31.50
15709;BMP180;7954;51.914;8.420;2022-08-25T00:14:29;100523.38;;;31.48
15709;BMP180;7954;51.914;8.420;2022-08-25T00:16:58;100526.34;;;31.42
15709;BMP180;7954;51.914;8.420;2022-08-25T00:19:29;100522.56;;;31.39
15709;BMP180;7954;51.914;8.420;2022-08-25T00:22:01;100521.53;;;31.37
15709;BMP180;7954;51.914;8.420;2022-08-25T00:24:29;100528.84;;;31.31
15709;BMP180;7954;51.914;8.420;2022-08-25T00:26:58;100531.03;;;31.26
15709;BMP180;7954;51.914;8.420;2022-08-25T00:29:28;100525.44;;;31.22
15709;BMP180;7954;51.914;8.420;2022-08-25T00:31:57;100523.34;;;31.18
15709;BMP180;7954;51.914;8.420;2022-08-25T00:34:28;100525.41;;;31.12
15709;BMP180;7954;51.914;8.420;2022-08-25T00:36:57;100528.56;;;31.08
15709;BMP180;7954;51.914;8.420;2022-08-25T00:39:27;100533.50;;;31.05
15709;BMP180;7954;51.914;8.420;2022-08-25T00:41:56;100536.88;;;31.04
15709;BMP180;7954;51.914;8.420;2022-08-25T00:44:26;100532.69;;;30.96
15709;BMP180;7954;51.914;8.420;2022-08-25T00:46:56;100527.94;;;30.92
15709;BMP180;7954;51.914;8.420;2022-08-25T00:49:27;100527.66;;;30.89
15709;BMP180;7954;51.914;8.420;2022-08-25T00:51:59;100531.56;;;30.84
15709;BMP180;7954;51.914;8.420;2022-08-25T00:54:31;100535.47;;;30.79
15709;BMP180;7954;51.914;8.420;2022-08-25T00:57:02;100532.97;;;30.71
15709;BMP180;7954;51.914;8.420;2022-08-25T00:59:31;100537.00;;;30.67
15709;BMP180;7954;51.914;8.420;2022-08-25T01:02:00;100541.41;;;30.59
15709;BMP180;7954;51.914;8.420;2022-08-25T01:04:28;100533.28;;;30.56
15709;BMP180;7954;51.914;8.420;2022-08-25T01:06:59;100536.16;;;30.49
15709;BMP180;7954;51.914;8.420;2022-08-25T01:09:30;100535.34;;;30.50
15709;BMP180;7954;51.914;8.420;2022-08-25T01:11:59;100536.63;;;30.45
15709;BMP180;7954;51.914;8.420;2022-08-25T01:14:29;100532.53;;;30.38
15709;BMP180;7954;51.914;8.420;2022-08-25T01:16:58;100525.06;;;30.33
15709;BMP180;7954;51.914;8.420;2022-08-25T01:19:27;100535.59;;;30.24
15709;BMP180;7954;51.914;8.420;2022-08-25T01:21:57;100534.13;;;30.18
15709;BMP180;7954;51.914;8.420;2022-08-25T01:24:29;100528.59;;;30.15
15709;BMP180;7954;51.914;8.420;2022-08-25T01:26:59;100531.72;;;30.11
15709;BMP180;7954;51.914;8.420;2022-08-25T01:29:27;100534.84;;;30.07
15709;BMP180;7954;51.914;8.420;2022-08-25T01:31:58;100537.50;;;29.98
15709;BMP180;7954;51.914;8.420;2022-08-25T01:34:28;100533.56;;;29.93
15709;BMP180;7954;51.914;8.420;2022-08-25T01:36:58;100533.94;;;29.88
15709;BMP180;7954;51.914;8.420;2022-08-25T01:39:28;100543.25;;;29.86
15709;BMP180;7954;51.914;8.420;2022-08-25T01:42:19;100531.63;;;29.83
15709;BMP180;7954;51.914;8.420;2022-08-25T01:44:50;100537.19;;;29.77
15709;BMP180;7954;51.914;8.420;2022-08-25T01:47:18;100534.16;;;29.73
15709;BMP180;7954;51.914;8.420;2022-08-25T01:49:45;100540.75;;;29.69
15709;BMP180;7954;51.914;8.420;2022-08-25T01:52:19;100539.41;;;29.64
15709;BMP180;7954;51.914;8.420;2022-08-25T01:54:47;100539.16;;;29.61
15709;BMP180;7954;51.914;8.420;2022-08-25T01:57:16;100534.28;;;29.56
15709;BMP180;7954;51.914;8.420;2022-08-25T01:59:44;100535.97;;;29.55
15709;BMP180;7954;51.914;8.420;2022-08-25T02:02:13;100534.94;;;29.53
15709;BMP180;7954;51.914;8.420;2022-08-25T02:04:43;100532.78;;;29.49
15709;BMP180;7954;51.914;8.420;2022-08-25T02:07:13;100534.97;;;29.45
15709;BMP180;7954;51.914;8.420;2022-08-25T02:09:44;100534.41;;;29.39
15709;BMP180;7954;51.914;8.420;2022-08-25T02:12:13;100530.44;;;29.34
15709;BMP180;7954;51.914;8.420;2022-08-25T02:14:40;100533.38;;;29.28
15709;BMP180;7954;51.914;8.420;2022-08-25T02:17:09;100541.63;;;29.24
15709;BMP180;7954;51.914;8.420;2022-08-25T02:19:37;100537.84;;;29.21
15709;BMP180;7954;51.914;8.420;2022-08-25T02:22:05;100537.25;;;29.15
15709;BMP180;7954;51.914;8.420;2022-08-25T02:24:33;100540.97;;;29.09
15709;BMP180;7954;51.914;8.420;2022-08-25T02:27:03;100544.03;;;29.05
15709;BMP180;7954;51.914;8.420;2022-08-25T02:29:31;100548.66;;;28.99
15709;BMP180;7954;51.914;8.420;2022-08-25T02:31:59;100541.31;;;28.95
15709;BMP180;7954;51.914;8.420;2022-08-25T02:34:27;100539.94;;;28.90
15709;BMP180;7954;51.914;8.420;2022-08-25T02:36:55;100543.19;;;28.87
15709;BMP180;7954;51.914;8.420;2022-08-25T02:39:22;100536.63;;;28.82
15709;BMP180;7954;51.914;8.420;2022-08-25T02:41:50;100533.28;;;28.75
15709;BMP180;7954;51.914;8.420;2022-08-25T02:44:20;100526.69;;;28.70
15709;BMP180;7954;51.914;8.420;2022-08-25T02:46:48;100537.72;;;28.67
15709;BMP180;7954;51.914;8.420;2022-08-25T02:49:16;100532.84;;;28.62
15709;BMP180;7954;51.914;8.420;2022-08-25T02:51:44;100523.69;;;28.57
15709;BMP180;7954;51.914;8.420;2022-08-25T02:54:12;100529.03;;;28.50
15709;BMP180;7954;51.914;8.420;2022-08-25T02:56:41;100533.81;;;28.46
15709;BMP180;7954;51.914;8.420;2022-08-25T02:59:10;100531.38;;;28.39
15709;BMP180;7954;51.914;8.420;2022-08-25T03:01:39;100530.16;;;28.35
15709;BMP180;7954;51.914;8.420;2022-08-25T03:04:07;100539.50;;;28.33
15709;BMP180;7954;51.914;8.420;2022-08-25T03:06:35;100528.78;;;28.30
15709;BMP180;7954;51.914;8.420;2022-08-25T03:09:03;100529.56;;;28.29
15709;BMP180;7954;51.914;8.420;2022-08-25T03:11:31;100537.19;;;28.28
15709;BMP180;7954;51.914;8.420;2022-08-25T03:14:00;100537.97;;;28.27
15709;BMP180;7954;51.914;8.420;2022-08-25T03:16:28;100530.94;;;28.26
15709;BMP180;7954;51.914;8.420;2022-08-25T03:18:59;100529.88;;;28.24
15709;BMP180;7954;51.914;8.420;2022-08-25T03:21:28;100531.56;;;28.23
15709;BMP180;7954;51.914;8.420;2022-08-25T03:23:58;100525.28;;;28.21
15709;BMP180;7954;51.914;8.420;2022-08-25T03:26:26;100523.16;;;28.17
15709;BMP180;7954;51.914;8.420;2022-08-25T03:29:11;100519.66;;;28.17
15709;BMP180;7954;51.914;8.420;2022-08-25T03:31:40;100526.19;;;28.13
15709;BMP180;7954;51.914;8.420;2022-08-25T03:34:12;100520.66;;;28.10
15709;BMP180;7954;51.914;8.420;2022-08-25T03:36:42;100528.94;;;28.06
15709;BMP180;7954;51.914;8.420;2022-08-25T03:39:10;100527.88;;;28.04
15709;BMP180;7954;51.914;8.420;2022-08-25T03:41:39;100530.00;;;28.00
15709;BMP180;7954;51.914;8.420;2022-08-25T03:44:07;100522.84;;;27.97
15709;BMP180;7954;51.914;8.420;2022-08-25T03:46:38;100528.50;;;27.93
15709;BMP180;7954;51.914;8.420;2022-08-25T03:49:08;100528.50;;;27.93
15709;BMP180;7954;51.914;8.420;2022-08-25T03:51:41;100521.94;;;27.89
15709;BMP180;7954;51.914;8.420;2022-08-25T03:54:10;100513.81;;;27.86
15709;BMP180;7954;51.914;8.420;2022-08-25T03:56:38;100506.97;;;27.86
15709;BMP180;7954;51.914;8.420;2022-08-25T03:59:06;100510.59;;;27.80
15709;BMP180;7954;51.914;8.420;2022-08-25T04:01:35;100507.25;;;27.81
15709;BMP180;7954;51.914;8.420;2022-08-25T04:04:04;100499.31;;;27.79
15709;BMP180;7954;51.914;8.420;2022-08-25T04:06:33;100505.25;;;27.78
15709;BMP180;7954;51.914;8.420;2022-08-25T04:09:02;100497.78;;;27.73
15709;BMP180;7954;51.914;8.420;2022-08-25T04:11:30;100500.38;;;27.73
15709;BMP180;7954;51.914;8.420;2022-08-25T04:13:58;100490.75;;;27.72
15709;BMP180;7954;51.914;8.420;2022-08-25T04:16:31;100494.09;;;27.71
15709;BMP180;7954;51.914;8.420;2022-08-25T04:19:04;100498.53;;;27.72
15709;BMP180;7954;51.914;8.420;2022-08-25T04:21:33;100508.78;;;27.70
15709;BMP180;7954;51.914;8.420;2022-08-25T04:24:04;100491.97;;;27.67
15709;BMP180;7954;51.914;8.420;2022-08-25T04:26:34;100501.75;;;27.69
15709;BMP180;7954;51.914;8.420;2022-08-25T04:29:05;100496.69;;;27.71
15709;BMP180;7954;51.914;8.420;2022-08-25T04:31:38;100499.63;;;27.74
15709;BMP180;7954;51.914;8.420;2022-08-25T04:34:06;100504.03;;;27.75
15709;BMP180;7954;51.914;8.420;2022-08-25T04:36:54;100498.22;;;27.77
15709;BMP180;7954;51.914;8.420;2022-08-25T04:39:23;100498.41;;;27.70
15709;BMP180;7954;51.914;8.420;2022-08-25T04:41:51;100504.50;;;27.71
15709;BMP180;7954;51.914;8.420;2022-08-25T04:44:19;100498.53;;;27.72
15709;BMP180;7954;51.914;8.420;2022-08-25T04:46:47;100499.91;;;27.77
15709;BMP180;7954;51.914;8.420;2022-08-25T04:49:16;100487.69;;;27.76
15709;BMP180;7954;51.914;8.420;2022-08-25T04:51:44;100494.25;;;27.72
15709;BMP180;7954;51.914;8.420;2022-08-25T04:54:14;100491.66;;;27.72
15709;BMP180;7954;51.914;8.420;2022-08-25T04:56:49;100491.03;;;27.75
15709;BMP180;7954;51.914;8.420;2022-08-25T04:59:23;100490.44;;;27.77
15709;BMP180;7954;51.914;8.420;2022-08-25T05:01:57;100481.88;;;27.78
15709;BMP180;7954;51.914;8.420;2022-08-25T05:04:28;100479.28;;;27.78
15709;BMP180;7954;51.914;8.420;2022-08-25T05:06:57;100476.84;;;27.80
15709;BMP180;7954;51.914;8.420;2022-08-25T05:09:26;100475.31;;;27.82
15709;BMP180;7954;51.914;8.420;2022-08-25T05:12:00;100472.72;;;27.82
15709;BMP180;7954;51.914;8.420;2022-08-25T05:14:28;100482.66;;;27.86
15709;BMP180;7954;51.914;8.420;2022-08-25T05:16:57;100485.56;;;27.89
15709;BMP180;7954;51.914;8.420;2022-08-25T05:19:25;100487.38;;;27.90
15709;BMP180;7954;51.914;8.420;2022-08-25T05:21:53;100487.69;;;27.92
15709;BMP180;7954;51.914;8.420;2022-08-25T05:24:24;100480.19;;;27.95
15709;BMP180;7954;51.914;8.420;2022-08-25T05:26:52;100483.25;;;28.00
15709;BMP180;7954;51.914;8.420;2022-08-25T05:29:22;100490.44;;;28.02
15709;BMP180;7954;51.914;8.420;2022-08-25T05:31:52;100497.00;;;28.07
15709;BMP180;7954;51.914;8.420;2022-08-25T05:34:20;100474.84;;;28.11
15709;BMP180;7954;51.914;8.420;2022-08-25T05:36:48;100490.13;;;28.16
15709;BMP180;7954;51.914;8.420;2022-08-25T05:39:17;100480.34;;;28.22
15709;BMP180;7954;51.914;8.420;2022-08-25T05:41:45;100483.41;;;28.27
15709;BMP180;7954;51.914;8.420;2022-08-25T05:44:12;100482.31;;;28.33
15709;BMP180;7954;51.914;8.420;2022-08-25T05:46:48;100485.34;;;28.38
15709;BMP180;7954;51.914;8.420;2022-08-25T05:49:17;100482.13;;;28.40
15709;BMP180;7954;51.914;8.420;2022-08-25T05:51:45;100490.03;;;28.50
15709;BMP180;7954;51.914;8.420;2022-08-25T05:54:14;100492.63;;;28.58
15709;BMP180;7954;51.914;8.420;2022-08-25T05:56:42;100486.94;;;28.62
15709;BMP180;7954;51.914;8.420;2022-08-25T05:59:11;100493.06;;;28.71
15709;BMP180;7954;51.914;8.420;2022-08-25T06:01:39;100488.44;;;28.77
15709;BMP180;7954;51.914;8.420;2022-08-25T06:04:27;100485.53;;;28.83
15709;BMP180;7954;51.914;8.420;2022-08-25T06:06:55;100481.69;;;28.88
15709;BMP180;7954;51.914;8.420;2022-08-25T06:09:24;100483.81;;;28.92
15709;BMP180;7954;51.914;8.420;2022-08-25T06:11:52;100474.00;;;28.98
15709;BMP180;7954;51.914;8.420;2022-08-25T06:14:21;100471.34;;;29.06
15709;BMP180;7954;51.914;8.420;2022-08-25T06:16:49;100467.63;;;29.13
15709;BMP180;7954;51.914;8.420;2022-08-25T06:19:18;100463.47;;;29.15
15709;BMP180;7954;51.914;8.420;2022-08-25T06:21:48;100457.31;;;29.23
15709;BMP180;7954;51.914;8.420;2022-08-25T06:24:16;100466.72;;;29.30
15709;BMP180;7954;51.914;8.420;2022-08-25T06:26:44;100472.81;;;29.39
15709;BMP180;7954;51.914;8.420;2022-08-25T06:29:12;100461.44;;;29.47
15709;BMP180;7954;51.914;8.420;2022-08-25T06:31:41;100456.81;;;29.53
15709;BMP180;7954;51.914;8.420;2022-08-25T06:34:10;100464.53;;;29.62
15709;BMP180;7954;51.914;8.420;2022-08-25T06:36:38;100470.44;;;29.69
15709;BMP180;7954;51.914;8.420;2022-08-25T06:39:07;100472.84;;;29.76
15709;BMP180;7954;51.914;8.420;2022-08-25T06:41:36;100462.97;;;29.82
15709;BMP180;7954;51.914;8.420;2022-08-25T06:44:05;100453.28;;;29.90
15709;BMP180;7954;51.914;8.420;2022-08-25T06:46:33;100454.75;;;29.96
15709;BMP180;7954;51.914;8.420;2022-08-25T06:49:03;100458.81;;;30.02
15709;BMP180;7954;51.914;8.420;2022-08-25T06:51:32;100462.41;;;30.13
15709;BMP180;7954;51.914;8.420;2022-08-25T06:54:01;100462.03;;;30.18
15709;BMP180;7954;51.914;8.420;2022-08-25T06:56:32;100460.38;;;30.29
15709;BMP180;7954;51.914;8.420;2022-08-25T06:59:04;100467.22;;;30.37
15709;BMP180;7954;51.914;8.420;2022-08-25T07:01:32;100462.97;;;30.47
15709;BMP180;7954;51.914;8.420;2022-08-25T07:04:03;100457.66;;;30.56
15709;BMP180;7954;51.914;8.420;2022-08-25T07:06:37;100458.75;;;30.67
15709;BMP180;7954;51.914;8.420;2022-08-25T07:09:06;100456.81;;;30.75
15709;BMP180;7954;51.914;8.420;2022-08-25T07:11:36;100456.41;;;30.80
15709;BMP180;7954;51.914;8.420;2022-08-25T07:14:05;100456.19;;;30.87
15709;BMP180;7954;51.914;8.420;2022-08-25T07:16:34;100462.22;;;30.96
15709;BMP180;7954;51.914;8.420;2022-08-25T07:19:02;100464.06;;;31.07
15709;BMP180;7954;51.914;8.420;2022-08-25T07:21:33;100463.00;;;31.15
15709;BMP180;7954;51.914;8.420;2022-08-25T07:24:04;100459.22;;;31.22
15709;BMP180;7954;51.914;8.420;2022-08-25T07:26:33;100451.38;;;31.31
15709;BMP180;7954;51.914;8.420;2022-08-25T07:29:12;100465.38;;;31.42
15709;BMP180;7954;51.914;8.420;2022-08-25T07:31:41;100458.34;;;31.51
15709;BMP180;7954;51.914;8.420;2022-08-25T07:34:09;100452.88;;;31.58
15709;BMP180;7954;51.914;8.420;2022-08-25T07:36:56;100453.63;;;31.67
15709;BMP180;7954;51.914;8.420;2022-08-25T07:39:25;100448.94;;;31.73
15709;BMP180;7954;51.914;8.420;2022-08-25T07:41:54;100455.16;;;31.85
15709;BMP180;7954;51.914;8.420;2022-08-25T07:44:24;100460.00;;;31.90
15709;BMP180;7954;51.914;8.420;2022-08-25T07:46:53;100461.94;;;32.02
15709;BMP180;7954;51.914;8.420;2022-08-25T07:49:25;100462.44;;;32.08
15709;BMP180;7954;51.914;8.420;2022-08-25T07:52:05;100463.69;;;32.23
15709;BMP180;7954;51.914;8.420;2022-08-25T07:54:35;100462.34;;;32.28
15709;BMP180;7954;51.914;8.420;2022-08-25T07:57:05;100471.88;;;32.38
15709;BMP180;7954;51.914;8.420;2022-08-25T07:59:38;100460.56;;;32.49
15709;BMP180;7954;51.914;8.420;2022-08-25T08:02:08;100453.72;;;32.60
15709;BMP180;7954;51.914;8.420;2022-08-25T08:04:46;100456.06;;;32.67
15709;BMP180;7954;51.914;8.420;2022-08-25T08:07:16;100450.66;;;32.76
15709;BMP180;7954;51.914;8.420;2022-08-25T08:09:45;100452.53;;;32.88
15709;BMP180;7954;51.914;8.420;2022-08-25T08:12:27;100456.66;;;32.96
15709;BMP180;7954;51.914;8.420;2022-08-25T08:14:58;100447.63;;;33.03
15709;BMP180;7954;51.914;8.420;2022-08-25T08:17:26;100449.22;;;33.12
15709;BMP180;7954;51.914;8.420;2022-08-25T08:19:54;100451.88;;;33.24
15709;BMP180;7954;51.914;8.420;2022-08-25T08:22:22;100450.00;;;33.32
15709;BMP180;7954;51.914;8.420;2022-08-25T08:24:50;100449.75;;;33.41
15709;BMP180;7954;51.914;8.420;2022-08-25T08:27:21;100439.75;;;33.47
15709;BMP180;7954;51.914;8.420;2022-08-25T08:29:50;100454.91;;;33.51
15709;BMP180;7954;51.914;8.420;2022-08-25T08:32:21;100442.75;;;33.51
15709;BMP180;7954;51.914;8.420;2022-08-25T08:35:06;100446.78;;;33.58
15709;BMP180;7954;51.914;8.420;2022-08-25T08:37:34;100440.53;;;33.67
15709;BMP180;7954;51.914;8.420;2022-08-25T08:40:07;100444.84;;;33.78
15709;BMP180;7954;51.914;8.420;2022-08-25T08:42:44;100435.38;;;33.92
15709;BMP180;7954;51.914;8.420;2022-08-25T08:45:27;100430.41;;;34.06
15709;BMP180;7954;51.914;8.420;2022-08-25T08:51:20;100415.44;;;34.16
15709;BMP180;7954;51.914;8.420;2022-08-25T08:53:54;100420.25;;;34.22
15709;BMP180;7954;51.914;8.420;2022-08-25T08:56:25;100416.56;;;34.31
15709;BMP180;7954;51.914;8.420;2022-08-25T08:58:57;100415.63;;;34.42
15709;BMP180;7954;51.914;8.420;2022-08-25T09:01:33;100413.47;;;34.48
15709;BMP180;7954;51.914;8.420;2022-08-25T09:04:08;100426.22;;;34.55
15709;BMP180;7954;51.914;8.420;2022-08-25T09:06:41;100418.59;;;34.47
15709;BMP180;7954;51.914;8.420;2022-08-25T09:09:12;100413.69;;;34.51
15709;BMP180;7954;51.914;8.420;2022-08-25T09:11:53;100405.09;;;34.65
15709;BMP180;7954;51.914;8.420;2022-08-25T09:14:38;100406.75;;;34.76
15709;BMP180;7954;51.914;8.420;2022-08-25T09:17:12;100398.81;;;34.87
15709;BMP180;7954;51.914;8.420;2022-08-25T09:20:23;100399.25;;;34.93
15709;BMP180;7954;51.914;8.420;2022-08-25T09:23:00;100394.47;;;34.99
15709;BMP180;7954;51.914;8.420;2022-08-25T09:25:39;100382.13;;;34.98
15709;BMP180;7954;51.914;8.420;2022-08-25T09:28:24;100395.09;;;35.08
15709;BMP180;7954;51.914;8.420;2022-08-25T09:30:58;100382.28;;;35.13
15709;BMP180;7954;51.914;8.420;2022-08-25T09:33:32;100376.88;;;35.23
15709;BMP180;7954;51.914;8.420;2022-08-25T09:36:04;100362.75;;;35.33
15709;BMP180;7954;51.914;8.420;2022-08-25T09:38:34;100369.41;;;35.41
15709;BMP180;7954;51.914;8.420;2022-08-25T09:41:04;100371.78;;;35.50
15709;BMP180;7954;51.914;8.420;2022-08-25T09:43:34;100369.44;;;35.54
15709;BMP180;7954;51.914;8.420;2022-08-25T09:46:10;100364.75;;;35.62
15709;BMP180;7954;51.914;8.420;2022-08-25T09:48:43;100361.59;;;35.67
15709;BMP180;7954;51.914;8.420;2022-08-25T09:51:26;100355.63;;;35.70
15709;BMP180;7954;51.914;8.420;2022-08-25T09:54:17;100348.94;;;35.75
15709;BMP180;7954;51.914;8.420;2022-08-25T09:56:50;100348.94;;;35.75
15709;BMP180;7954;51.914;8.420;2022-08-25T09:59:23;100342.25;;;35.80
15709;BMP180;7954;51.914;8.420;2022-08-25T10:02:04;100337.59;;;35.89
15709;BMP180;7954;51.914;8.420;2022-08-25T10:04:34;100332.78;;;35.95
15709;BMP180;7954;51.914;8.420;2022-08-25T10:07:20;100326.25;;;36.02
15709;BMP180;7954;51.914;8.420;2022-08-25T10:09:52;100320.50;;;36.08
15709;BMP180;7954;51.914;8.420;2022-08-25T10:12:22;100318.50;;;36.04
15709;BMP180;7954;51.914;8.420;2022-08-25T10:14:54;100310.88;;;36.08
15709;BMP180;7954;51.914;8.420;2022-08-25T10:17:26;100303.69;;;36.19
15709;BMP180;7954;51.914;8.420;2022-08-25T10:20:16;100295.44;;;36.27
15709;BMP180;7954;51.914;8.420;2022-08-25T10:22:48;100294.63;;;36.28
15709;BMP180;7954;51.914;8.420;2022-08-25T10:25:24;100297.34;;;36.30
15709;BMP180;7954;51.914;8.420;2022-08-25T10:28:03;100278.72;;;36.40
15709;BMP180;7954;51.914;8.420;2022-08-25T10:30:50;100288.00;;;36.48
15709;BMP180;7954;51.914;8.420;2022-08-25T10:33:27;100277.56;;;36.49
15709;BMP180;7954;51.914;8.420;2022-08-25T10:36:03;100278.38;;;36.48
15709;BMP180;7954;51.914;8.420;2022-08-25T10:38:42;100274.50;;;36.56
15709;BMP180;7954;51.914;8.420;2022-08-25T10:41:29;100267.88;;;36.63
15709;BMP180;7954;51.914;8.420;2022-08-25T10:44:12;100265.72;;;36.70
15709;BMP180;7954;51.914;8.420;2022-08-25T10:47:09;100268.81;;;36.77
15709;BMP180;7954;51.914;8.420;2022-08-25T10:49:44;100255.03;;;36.81
15709;BMP180;7954;51.914;8.420;2022-08-25T10:52:20;100262.31;;;36.85
15709;BMP180;7954;51.914;8.420;2022-08-25T10:54:57;100259.16;;;36.91
15709;BMP180;7954;51.914;8.420;2022-08-25T10:57:33;100252.50;;;36.97
15709;BMP180;7954;51.914;8.420;2022-08-25T11:00:05;100247.78;;;37.06
15709;BMP180;7954;51.914;8.420;2022-08-25T11:02:52;100239.78;;;37.05
15709;BMP180;7954;51.914;8.420;2022-08-25T11:05:27;100237.22;;;36.92
15709;BMP180;7954;51.914;8.420;2022-08-25T11:08:04;100232.81;;;36.78
15709;BMP180;7954;51.914;8.420;2022-08-25T11:10:41;100231.63;;;36.86
15709;BMP180;7954;51.914;8.420;2022-08-25T11:13:17;100228.94;;;37.00
15709;BMP180;7954;51.914;8.420;2022-08-25T11:15:52;100217.13;;;37.23
15709;BMP180;7954;51.914;8.420;2022-08-25T11:18:47;100215.91;;;37.46
15709;BMP180;7954;51.914;8.420;2022-08-25T11:21:20;100215.06;;;37.62
15709;BMP180;7954;51.914;8.420;2022-08-25T11:23:55;100207.84;;;37.74
15709;BMP180;7954;51.914;8.420;2022-08-25T11:26:29;100209.84;;;37.78
15709;BMP180;7954;51.914;8.420;2022-08-25T11:29:05;100207.53;;;37.84
15709;BMP180;7954;51.914;8.420;2022-08-25T11:31:39;100213.22;;;37.75
15709;BMP180;7954;51.914;8.420;2022-08-25T11:34:10;100214.41;;;37.80
15709;BMP180;7954;51.914;8.420;2022-08-25T11:36:42;100209.97;;;37.95
15709;BMP180;7954;51.914;8.420;2022-08-25T11:39:24;100212.81;;;38.14
15709;BMP180;7954;51.914;8.420;2022-08-25T11:42:08;100212.13;;;38.34
15709;BMP180;7954;51.914;8.420;2022-08-25T11:44:51;100202.31;;;38.31
15709;BMP180;7954;51.914;8.420;2022-08-25T11:47:49;100211.38;;;38.36
15709;BMP180;7954;51.914;8.420;2022-08-25T11:50:27;100213.28;;;38.55
15709;BMP180;7954;51.914;8.420;2022-08-25T11:52:59;100196.09;;;38.63
15709;BMP180;7954;51.914;8.420;2022-08-25T11:55:45;100199.13;;;38.70
15709;BMP180;7954;51.914;8.420;2022-08-25T11:58:28;100206.88;;;38.83
15709;BMP180;7954;51.914;8.420;2022-08-25T12:00:58;100205.78;;;38.95
15709;BMP180;7954;51.914;8.420;2022-08-25T12:03:52;100200.63;;;38.98
15709;BMP180;7954;51.914;8.420;2022-08-25T12:06:32;100204.63;;;38.90
15709;BMP180;7954;51.914;8.420;2022-08-25T12:09:18;100207.41;;;38.93
15709;BMP180;7954;51.914;8.420;2022-08-25T12:11:52;100196.16;;;38.97
15709;BMP180;7954;51.914;8.420;2022-08-25T12:14:52;100187.88;;;39.07
15709;BMP180;7954;51.914;8.420;2022-08-25T12:17:25;100195.31;;;38.81
15709;BMP180;7954;51.914;8.420;2022-08-25T12:20:05;100187.34;;;38.64
15709;BMP180;7954;51.914;8.420;2022-08-25T12:22:54;100195.28;;;38.48
15709;BMP180;7954;51.914;8.420;2022-08-25T12:25:44;100198.72;;;38.47
15709;BMP180;7954;51.914;8.420;2022-08-25T12:28:30;100191.47;;;38.74
15709;BMP180;7954;51.914;8.420;2022-08-25T12:31:09;100181.66;;;38.89
15709;BMP180;7954;51.914;8.420;2022-08-25T12:33:52;100185.09;;;39.04
15709;BMP180;7954;51.914;8.420;2022-08-25T12:36:28;100177.75;;;39.16
15709;BMP180;7954;51.914;8.420;2022-08-25T12:39:13;100183.06;;;39.16
15709;BMP180;7954;51.914;8.420;2022-08-25T12:41:55;100182.66;;;39.26
15709;BMP180;7954;51.914;8.420;2022-08-25T12:44:40;100172.84;;;39.41
15709;BMP180;7954;51.914;8.420;2022-08-25T12:47:24;100166.75;;;39.78
15709;BMP180;7954;51.914;8.420;2022-08-25T12:53:10;100163.94;;;40.68
15709;BMP180;7954;51.914;8.420;2022-08-25T12:55:43;100160.38;;;40.88
15709;BMP180;7954;51.914;8.420;2022-08-25T12:58:14;100154.91;;;41.26
15709;BMP180;7954;51.914;8.420;2022-08-25T13:01:09;100147.31;;;41.55
15709;BMP180;7954;51.914;8.420;2022-08-25T13:07:11;100144.13;;;42.55
15709;BMP180;7954;51.914;8.420;2022-08-25T13:12:59;100134.00;;;43.20
15709;BMP180;7954;51.914;8.420;2022-08-25T13:15:36;100125.16;;;43.21
15709;BMP180;7954;51.914;8.420;2022-08-25T13:18:25;100121.09;;;42.80
15709;BMP180;7954;51.914;8.420;2022-08-25T13:21:01;100130.06;;;43.09
15709;BMP180;7954;51.914;8.420;2022-08-25T13:23:34;100127.66;;;43.42
15709;BMP180;7954;51.914;8.420;2022-08-25T13:26:03;100123.09;;;43.40
15709;BMP180;7954;51.914;8.420;2022-08-25T13:28:33;100120.00;;;43.00
15709;BMP180;7954;51.914;8.420;2022-08-25T13:31:07;100117.13;;;42.68
15709;BMP180;7954;51.914;8.420;2022-08-25T13:33:36;100113.19;;;43.35
15709;BMP180;7954;51.914;8.420;2022-08-25T13:36:05;100118.34;;;43.84
15709;BMP180;7954;51.914;8.420;2022-08-25T13:38:51;100118.81;;;44.30
15709;BMP180;7954;51.914;8.420;2022-08-25T13:41:23;100104.66;;;44.63
15709;BMP180;7954;51.914;8.420;2022-08-25T13:43:56;100100.13;;;44.61
15709;BMP180;7954;51.914;8.420;2022-08-25T13:46:27;100099.34;;;44.98
15709;BMP180;7954;51.914;8.420;2022-08-25T13:49:02;100094.13;;;45.03
15709;BMP180;7954;51.914;8.420;2022-08-25T13:51:31;100092.81;;;44.54
15709;BMP180;7954;51.914;8.420;2022-08-25T13:54:05;100105.25;;;44.21
15709;BMP180;7954;51.914;8.420;2022-08-25T13:56:38;100103.31;;;44.49
15709;BMP180;7954;51.914;8.420;2022-08-25T13:59:19;100095.72;;;45.30
15709;BMP180;7954;51.914;8.420;2022-08-25T14:01:49;100089.94;;;45.90
15709;BMP180;7954;51.914;8.420;2022-08-25T14:04:22;100084.97;;;46.52
15709;BMP180;7954;51.914;8.420;2022-08-25T14:07:05;100079.63;;;47.04
15709;BMP180;7954;51.914;8.420;2022-08-25T14:09:44;100074.06;;;47.45
15709;BMP180;7954;51.914;8.420;2022-08-25T14:12:42;100076.47;;;47.89
15709;BMP180;7954;51.914;8.420;2022-08-25T14:15:26;100072.25;;;48.11
15709;BMP180;7954;51.914;8.420;2022-08-25T14:18:03;100069.00;;;48.41
15709;BMP180;7954;51.914;8.420;2022-08-25T14:20:33;100064.63;;;48.49
15709;BMP180;7954;51.914;8.420;2022-08-25T14:23:04;100063.00;;;48.66
15709;BMP180;7954;51.914;8.420;2022-08-25T14:25:37;100060.63;;;49.05
15709;BMP180;7954;51.914;8.420;2022-08-25T14:28:10;100059.00;;;49.23
15709;BMP180;7954;51.914;8.420;2022-08-25T14:30:41;100059.97;;;49.37
15709;BMP180;7954;51.914;8.420;2022-08-25T14:33:13;100055.63;;;49.54
15709;BMP180;7954;51.914;8.420;2022-08-25T14:35:42;100053.84;;;49.62
15709;BMP180;7954;51.914;8.420;2022-08-25T14:38:13;100057.59;;;49.97
15709;BMP180;7954;51.914;8.420;2022-08-25T14:40:44;100050.44;;;50.08
15709;BMP180;7954;51.914;8.420;2022-08-25T14:43:13;100050.50;;;50.18
15709;BMP180;7954;51.914;8.420;2022-08-25T14:45:45;100045.16;;;50.39
15709;BMP180;7954;51.914;8.420;2022-08-25T14:48:21;100046.97;;;50.70
15709;BMP180;7954;51.914;8.420;2022-08-25T14:50:50;100040.69;;;51.00
15709;BMP180;7954;51.914;8.420;2022-08-25T14:53:18;100044.28;;;51.26
15709;BMP180;7954;51.914;8.420;2022-08-25T14:55:48;100039.72;;;51.54